sensor_id;sensor_type;location;lat;lon;timestamp;noise_LAeq;noise_LA_min;noise_LA_max;noise_LA01;noise_LA95
69615;Laerm;56821;52.486;4.680;2023-02-26T00:00:06;37.11;34.32;39.65;;
69615;Laerm;56821;52.486;4.680;2023-02-26T00:00:24;38.17;34.23;40.86;;
69615;Laerm;56821;52.486;4.680;2023-02-26T00:00:34;34.13;32.41;36.08;;
69615;Laerm;56821;52.486;4.680;2023-02-26T00:00:44;34.00;32.12;36.12;;
69615;Laerm;56821;52.486;4.680;2023-02-26T00:00:55;35.18;33.47;37.49;;
69615;Laerm;56821;52.486;4.680;2023-02-26T00:01:13;35.82;33.60;37.71;;
69615;Laerm;56821;52.486;4.680;2023-02-26T00:01:25;34.72;32.76;36.86;;
69615;Laerm;56821;52.486;4.680;2023-02-26T00:01:35;36.02;33.17;38.00;;
69615;Laerm;56821;52.486;4.680;2023-02-26T00:01:46;36.42;33.40;38.60;;
69615;Laerm;56821;52.486;4.680;2023-02-26T00:01:57;35.19;32.97;37.43;;
69615;Laerm;56821;52.486;4.680;2023-02-26T00:02:12;37.23;34.43;39.89;;
69615;Laerm;56821;52.486;4.680;2023-02-26T00:02:22;35.92;34.02;38.70;;
69615;Laerm;56821;52.486;4.680;2023-02-26T00:02:32;36.47;34.01;39.05;;
69615;Laerm;56821;52.486;4.680;2023-02-26T00:02:43;37.26;34.81;39.55;;
69615;Laerm;56821;52.486;4.680;2023-02-26T00:02:55;35.75;32.59;39.15;;
69615;Laerm;56821;52.486;4.680;2023-02-26T00:03:05;34.04;31.86;37.26;;
69615;Laerm;56821;52.486;4.680;2023-02-26T00:03:15;34.17;32.49;36.24;;
69615;Laerm;56821;52.486;4.680;2023-02-26T00:03:26;35.50;32.38;39.79;;
69615;Laerm;56821;52.486;4.680;2023-02-26T00:03:36;35.55;32.91;39.57;;
69615;Laerm;56821;52.486;4.680;2023-02-26T00:03:53;36.14;33.48;42.38;;
69615;Laerm;56821;52.486;4.680;2023-02-26T00:04:04;35.86;33.16;40.46;;
69615;Laerm;56821;52.486;4.680;2023-02-26T00:04:15;36.83;34.48;39.74;;
69615;Laerm;56821;52.486;4.680;2023-02-26T00:04:25;38.62;35.54;40.93;;
69615;Laerm;56821;52.486;4.680;2023-02-26T00:04:36;37.46;33.88;40.99;;
69615;Laerm;56821;52.486;4.680;2023-02-26T00:04:46;37.28;34.81;40.14;;
69615;Laerm;56821;52.486;4.680;2023-02-26T00:04:56;36.96;34.99;38.69;;
69615;Laerm;56821;52.486;4.680;2023-02-26T00:05:07;36.65;34.53;38.91;;
69615;Laerm;56821;52.486;4.680;2023-02-26T00:05:17;36.39;34.61;38.37;;
69615;Laerm;56821;52.486;4.680;2023-02-26T00:05:27;36.93;34.57;38.50;;
69615;Laerm;56821;52.486;4.680;2023-02-26T00:05:37;36.14;33.95;38.29;;
69615;Laerm;56821;52.486;4.680;2023-02-26T00:05:48;37.40;34.62;40.12;;
69615;Laerm;56821;52.486;4.680;2023-02-26T00:05:59;38.91;37.31;41.13;;
69615;Laerm;56821;52.486;4.680;2023-02-26T00:06:09;37.12;34.39;40.37;;
69615;Laerm;56821;52.486;4.680;2023-02-26T00:06:21;37.42;35.55;39.08;;
69615;Laerm;56821;52.486;4.680;2023-02-26T00:06:33;37.52;35.45;39.95;;
69615;Laerm;56821;52.486;4.680;2023-02-26T00:06:43;38.58;36.41;40.97;;
69615;Laerm;56821;52.486;4.680;2023-02-26T00:07:03;38.83;33.92;44.26;;
69615;Laerm;56821;52.486;4.680;2023-02-26T00:07:14;34.18;32.52;36.68;;
69615;Laerm;56821;52.486;4.680;2023-02-26T00:07:25;33.66;32.30;35.19;;
69615;Laerm;56821;52.486;4.680;2023-02-26T00:07:38;33.88;32.34;35.03;;
69615;Laerm;56821;52.486;4.680;2023-02-26T00:07:48;34.18;32.32;40.62;;
69615;Laerm;56821;52.486;4.680;2023-02-26T00:07:59;33.78;32.07;35.68;;
69615;Laerm;56821;52.486;4.680;2023-02-26T00:08:09;34.90;32.65;37.34;;
69615;Laerm;56821;52.486;4.680;2023-02-26T00:08:19;35.25;33.00;37.69;;
69615;Laerm;56821;52.486;4.680;2023-02-26T00:08:29;35.65;33.91;38.00;;
69615;Laerm;56821;52.486;4.680;2023-02-26T00:08:40;36.68;34.47;39.06;;
69615;Laerm;56821;52.486;4.680;2023-02-26T00:08:50;36.22;32.88;38.34;;
69615;Laerm;56821;52.486;4.680;2023-02-26T00:09:01;35.57;33.18;38.46;;
69615;Laerm;56821;52.486;4.680;2023-02-26T00:09:12;34.10;32.29;36.22;;
69615;Laerm;56821;52.486;4.680;2023-02-26T00:09:22;33.92;32.36;37.15;;
69615;Laerm;56821;52.486;4.680;2023-02-26T00:09:33;33.82;32.00;35.70;;
69615;Laerm;56821;52.486;4.680;2023-02-26T00:09:43;35.27;33.09;38.16;;
69615;Laerm;56821;52.486;4.680;2023-02-26T00:09:53;38.70;35.41;42.36;;
69615;Laerm;56821;52.486;4.680;2023-02-26T00:10:05;39.59;36.46;41.72;;
69615;Laerm;56821;52.486;4.680;2023-02-26T00:10:15;37.62;35.42;40.03;;
69615;Laerm;56821;52.486;4.680;2023-02-26T00:10:25;38.14;35.79;39.91;;
69615;Laerm;56821;52.486;4.680;2023-02-26T00:10:36;38.47;35.86;42.62;;
69615;Laerm;56821;52.486;4.680;2023-02-26T00:10:46;37.68;34.53;40.09;;
69615;Laerm;56821;52.486;4.680;2023-02-26T00:10:57;37.92;35.94;42.67;;
69615;Laerm;56821;52.486;4.680;2023-02-26T00:11:11;35.95;33.44;39.02;;
69615;Laerm;56821;52.486;4.680;2023-02-26T00:11:21;34.51;32.39;37.27;;
69615;Laerm;56821;52.486;4.680;2023-02-26T00:11:32;33.81;32.17;35.50;;
69615;Laerm;56821;52.486;4.680;2023-02-26T00:11:42;34.83;32.78;37.18;;
69615;Laerm;56821;52.486;4.680;2023-02-26T00:11:53;35.71;34.22;38.04;;
69615;Laerm;56821;52.486;4.680;2023-02-26T00:12:03;36.12;33.61;38.26;;
69615;Laerm;56821;52.486;4.680;2023-02-26T00:12:14;37.97;35.67;40.04;;
69615;Laerm;56821;52.486;4.680;2023-02-26T00:12:24;34.35;32.18;36.62;;
69615;Laerm;56821;52.486;4.680;2023-02-26T00:12:35;35.25;33.32;37.29;;
69615;Laerm;56821;52.486;4.680;2023-02-26T00:12:45;34.74;32.70;36.59;;
69615;Laerm;56821;52.486;4.680;2023-02-26T00:12:55;33.74;32.22;36.09;;
69615;Laerm;56821;52.486;4.680;2023-02-26T00:13:07;33.17;31.03;35.69;;
69615;Laerm;56821;52.486;4.680;2023-02-26T00:13:17;33.31;31.63;35.04;;
69615;Laerm;56821;52.486;4.680;2023-02-26T00:13:28;34.08;32.06;36.27;;
69615;Laerm;56821;52.486;4.680;2023-02-26T00:13:39;34.06;32.14;35.90;;
69615;Laerm;56821;52.486;4.680;2023-02-26T00:13:50;33.76;31.57;35.84;;
69615;Laerm;56821;52.486;4.680;2023-02-26T00:14:00;34.26;32.40;36.68;;
69615;Laerm;56821;52.486;4.680;2023-02-26T00:14:12;35.07;33.24;36.96;;
69615;Laerm;56821;52.486;4.680;2023-02-26T00:14:23;36.59;34.20;39.27;;
69615;Laerm;56821;52.486;4.680;2023-02-26T00:14:33;38.47;36.60;40.08;;
69615;Laerm;56821;52.486;4.680;2023-02-26T00:14:44;37.14;33.10;39.90;;
69615;Laerm;56821;52.486;4.680;2023-02-26T00:14:54;34.17;32.24;36.03;;
69615;Laerm;56821;52.486;4.680;2023-02-26T00:15:05;34.26;32.26;35.92;;
69615;Laerm;56821;52.486;4.680;2023-02-26T00:15:15;35.27;32.48;37.84;;
69615;Laerm;56821;52.486;4.680;2023-02-26T00:15:27;36.13;33.04;38.83;;
69615;Laerm;56821;52.486;4.680;2023-02-26T00:15:37;37.22;35.06;39.05;;
69615;Laerm;56821;52.486;4.680;2023-02-26T00:15:49;34.58;31.88;38.12;;
69615;Laerm;56821;52.486;4.680;2023-02-26T00:16:02;32.91;30.65;36.74;;
69615;Laerm;56821;52.486;4.680;2023-02-26T00:16:16;32.47;30.28;34.42;;
69615;Laerm;56821;52.486;4.680;2023-02-26T00:16:31;32.46;30.19;35.25;;
69615;Laerm;56821;52.486;4.680;2023-02-26T00:16:42;32.89;30.89;34.64;;
69615;Laerm;56821;52.486;4.680;2023-02-26T00:17:25;35.50;31.82;38.75;;
69615;Laerm;56821;52.486;4.680;2023-02-26T00:18:11;33.19;31.37;35.85;;
69615;Laerm;56821;52.486;4.680;2023-02-26T00:18:23;33.01;31.23;36.12;;
69615;Laerm;56821;52.486;4.680;2023-02-26T00:18:33;33.30;31.36;35.37;;
69615;Laerm;56821;52.486;4.680;2023-02-26T00:18:43;32.54;30.59;34.35;;
69615;Laerm;56821;52.486;4.680;2023-02-26T00:18:55;33.61;31.44;36.44;;
69615;Laerm;56821;52.486;4.680;2023-02-26T00:19:06;33.94;32.18;35.98;;
69615;Laerm;56821;52.486;4.680;2023-02-26T00:19:17;35.32;33.25;37.74;;
69615;Laerm;56821;52.486;4.680;2023-02-26T00:19:29;36.36;33.36;39.62;;
69615;Laerm;56821;52.486;4.680;2023-02-26T00:19:39;33.28;31.41;35.78;;
69615;Laerm;56821;52.486;4.680;2023-02-26T00:19:49;34.62;31.99;37.00;;
69615;Laerm;56821;52.486;4.680;2023-02-26T00:20:00;34.66;31.28;36.78;;
69615;Laerm;56821;52.486;4.680;2023-02-26T00:20:10;32.99;31.35;34.73;;
69615;Laerm;56821;52.486;4.680;2023-02-26T00:20:21;32.97;31.11;34.79;;
69615;Laerm;56821;52.486;4.680;2023-02-26T00:20:31;36.14;33.06;38.37;;
69615;Laerm;56821;52.486;4.680;2023-02-26T00:20:41;39.22;36.07;41.88;;
69615;Laerm;56821;52.486;4.680;2023-02-26T00:20:54;34.77;32.03;39.65;;
69615;Laerm;56821;52.486;4.680;2023-02-26T00:21:05;33.33;31.33;35.11;;
69615;Laerm;56821;52.486;4.680;2023-02-26T00:21:16;34.88;32.92;37.29;;
69615;Laerm;56821;52.486;4.680;2023-02-26T00:21:27;34.37;32.45;36.12;;
69615;Laerm;56821;52.486;4.680;2023-02-26T00:21:38;33.10;31.42;34.64;;
69615;Laerm;56821;52.486;4.680;2023-02-26T00:21:48;33.36;31.57;35.36;;
69615;Laerm;56821;52.486;4.680;2023-02-26T00:21:59;34.57;31.96;37.60;;
69615;Laerm;56821;52.486;4.680;2023-02-26T00:22:09;34.22;32.33;36.11;;
69615;Laerm;56821;52.486;4.680;2023-02-26T00:22:19;35.14;33.30;36.54;;
69615;Laerm;56821;52.486;4.680;2023-02-26T00:22:30;36.11;33.35;37.69;;
69615;Laerm;56821;52.486;4.680;2023-02-26T00:22:40;37.09;34.22;38.74;;
69615;Laerm;56821;52.486;4.680;2023-02-26T00:22:50;34.80;31.84;37.95;;
69615;Laerm;56821;52.486;4.680;2023-02-26T00:23:01;33.89;32.53;35.16;;
69615;Laerm;56821;52.486;4.680;2023-02-26T00:23:11;33.44;31.34;35.69;;
69615;Laerm;56821;52.486;4.680;2023-02-26T00:23:24;32.68;31.07;34.15;;
69615;Laerm;56821;52.486;4.680;2023-02-26T00:23:35;34.23;31.84;36.50;;
69615;Laerm;56821;52.486;4.680;2023-02-26T00:23:45;36.54;34.02;38.80;;
69615;Laerm;56821;52.486;4.680;2023-02-26T00:23:56;35.23;32.01;38.15;;
69615;Laerm;56821;52.486;4.680;2023-02-26T00:24:06;34.22;32.39;35.90;;
69615;Laerm;56821;52.486;4.680;2023-02-26T00:24:17;32.93;31.38;35.20;;
69615;Laerm;56821;52.486;4.680;2023-02-26T00:24:27;36.25;31.95;41.78;;
69615;Laerm;56821;52.486;4.680;2023-02-26T00:24:37;37.70;36.03;39.50;;
69615;Laerm;56821;52.486;4.680;2023-02-26T00:24:47;35.56;33.84;37.61;;
69615;Laerm;56821;52.486;4.680;2023-02-26T00:24:58;36.43;34.22;38.74;;
69615;Laerm;56821;52.486;4.680;2023-02-26T00:25:08;34.52;31.63;36.44;;
69615;Laerm;56821;52.486;4.680;2023-02-26T00:25:19;33.03;31.33;34.83;;
69615;Laerm;56821;52.486;4.680;2023-02-26T00:25:29;34.67;32.84;36.46;;
69615;Laerm;56821;52.486;4.680;2023-02-26T00:25:39;34.04;32.07;35.99;;
69615;Laerm;56821;52.486;4.680;2023-02-26T00:25:49;34.13;31.98;36.34;;
69615;Laerm;56821;52.486;4.680;2023-02-26T00:26:00;36.02;33.79;38.06;;
69615;Laerm;56821;52.486;4.680;2023-02-26T00:26:10;33.86;32.17;35.75;;
69615;Laerm;56821;52.486;4.680;2023-02-26T00:26:20;33.92;32.20;35.88;;
69615;Laerm;56821;52.486;4.680;2023-02-26T00:26:32;33.89;31.36;35.71;;
69615;Laerm;56821;52.486;4.680;2023-02-26T00:26:42;33.68;31.51;35.88;;
69615;Laerm;56821;52.486;4.680;2023-02-26T00:26:53;33.34;31.88;35.51;;
69615;Laerm;56821;52.486;4.680;2023-02-26T00:27:03;34.62;31.88;36.90;;
69615;Laerm;56821;52.486;4.680;2023-02-26T00:27:13;33.76;31.48;36.84;;
69615;Laerm;56821;52.486;4.680;2023-02-26T00:27:24;32.52;31.00;33.84;;
69615;Laerm;56821;52.486;4.680;2023-02-26T00:27:34;32.64;30.80;34.63;;
69615;Laerm;56821;52.486;4.680;2023-02-26T00:27:45;33.81;31.49;36.47;;
69615;Laerm;56821;52.486;4.680;2023-02-26T00:27:55;36.34;33.98;39.87;;
69615;Laerm;56821;52.486;4.680;2023-02-26T00:28:06;37.10;34.90;39.51;;
69615;Laerm;56821;52.486;4.680;2023-02-26T00:28:16;38.26;35.28;40.50;;
69615;Laerm;56821;52.486;4.680;2023-02-26T00:28:27;39.65;35.35;42.36;;
69615;Laerm;56821;52.486;4.680;2023-02-26T00:28:37;35.36;32.56;40.67;;
69615;Laerm;56821;52.486;4.680;2023-02-26T00:28:47;38.47;31.56;46.41;;
69615;Laerm;56821;52.486;4.680;2023-02-26T00:28:59;33.98;31.97;35.72;;
69615;Laerm;56821;52.486;4.680;2023-02-26T00:29:09;33.16;30.72;35.76;;
69615;Laerm;56821;52.486;4.680;2023-02-26T00:29:19;32.80;31.17;34.48;;
69615;Laerm;56821;52.486;4.680;2023-02-26T00:29:30;34.78;33.15;36.32;;
69615;Laerm;56821;52.486;4.680;2023-02-26T00:29:40;34.48;32.49;36.36;;
69615;Laerm;56821;52.486;4.680;2023-02-26T00:29:50;34.16;32.62;36.02;;
69615;Laerm;56821;52.486;4.680;2023-02-26T00:30:02;33.44;30.93;36.06;;
69615;Laerm;56821;52.486;4.680;2023-02-26T00:30:13;31.95;30.25;33.82;;
69615;Laerm;56821;52.486;4.680;2023-02-26T00:30:23;33.89;31.18;36.08;;
69615;Laerm;56821;52.486;4.680;2023-02-26T00:30:34;34.98;32.79;37.26;;
69615;Laerm;56821;52.486;4.680;2023-02-26T00:30:44;37.76;34.41;40.74;;
69615;Laerm;56821;52.486;4.680;2023-02-26T00:30:54;34.59;31.94;38.90;;
69615;Laerm;56821;52.486;4.680;2023-02-26T00:31:05;32.83;31.00;35.04;;
69615;Laerm;56821;52.486;4.680;2023-02-26T00:31:15;33.86;31.11;37.73;;
69615;Laerm;56821;52.486;4.680;2023-02-26T00:31:26;36.67;33.10;38.73;;
69615;Laerm;56821;52.486;4.680;2023-02-26T00:31:36;36.53;32.95;40.07;;
69615;Laerm;56821;52.486;4.680;2023-02-26T00:31:47;33.60;31.06;35.48;;
69615;Laerm;56821;52.486;4.680;2023-02-26T00:31:57;32.47;30.96;34.35;;
69615;Laerm;56821;52.486;4.680;2023-02-26T00:32:07;33.31;31.29;35.80;;
69615;Laerm;56821;52.486;4.680;2023-02-26T00:32:18;33.66;31.36;36.03;;
69615;Laerm;56821;52.486;4.680;2023-02-26T00:32:28;32.83;30.93;34.58;;
69615;Laerm;56821;52.486;4.680;2023-02-26T00:32:39;32.53;30.94;35.18;;
69615;Laerm;56821;52.486;4.680;2023-02-26T00:32:49;32.55;31.16;34.15;;
69615;Laerm;56821;52.486;4.680;2023-02-26T00:33:00;32.60;31.07;34.37;;
69615;Laerm;56821;52.486;4.680;2023-02-26T00:33:10;32.68;30.94;34.21;;
69615;Laerm;56821;52.486;4.680;2023-02-26T00:33:21;33.68;31.59;36.53;;
69615;Laerm;56821;52.486;4.680;2023-02-26T00:33:31;35.46;33.22;37.61;;
69615;Laerm;56821;52.486;4.680;2023-02-26T00:33:41;35.32;31.27;38.47;;
69615;Laerm;56821;52.486;4.680;2023-02-26T00:33:52;32.47;30.46;34.66;;
69615;Laerm;56821;52.486;4.680;2023-02-26T00:34:03;31.34;29.70;33.84;;
69615;Laerm;56821;52.486;4.680;2023-02-26T00:34:14;31.20;29.88;32.67;;
69615;Laerm;56821;52.486;4.680;2023-02-26T00:34:24;32.01;30.38;36.63;;
69615;Laerm;56821;52.486;4.680;2023-02-26T00:34:35;31.78;30.08;33.39;;
69615;Laerm;56821;52.486;4.680;2023-02-26T00:34:46;31.78;30.25;33.38;;
69615;Laerm;56821;52.486;4.680;2023-02-26T00:34:56;33.12;30.91;35.72;;
69615;Laerm;56821;52.486;4.680;2023-02-26T00:35:07;34.94;31.09;36.85;;
69615;Laerm;56821;52.486;4.680;2023-02-26T00:35:21;32.71;30.17;36.47;;
69615;Laerm;56821;52.486;4.680;2023-02-26T00:35:31;31.34;29.44;33.50;;
69615;Laerm;56821;52.486;4.680;2023-02-26T00:35:42;31.73;30.31;33.55;;
69615;Laerm;56821;52.486;4.680;2023-02-26T00:35:54;31.65;30.07;34.09;;
69615;Laerm;56821;52.486;4.680;2023-02-26T00:37:31;35.29;32.06;40.12;;
69615;Laerm;56821;52.486;4.680;2023-02-26T00:38:04;34.44;32.16;37.82;;
69615;Laerm;56821;52.486;4.680;2023-02-26T00:38:15;34.73;31.15;37.44;;
69615;Laerm;56821;52.486;4.680;2023-02-26T00:38:26;33.01;30.32;36.46;;
69615;Laerm;56821;52.486;4.680;2023-02-26T00:38:39;31.87;30.11;34.07;;
69615;Laerm;56821;52.486;4.680;2023-02-26T00:38:57;34.45;31.32;38.92;;
69615;Laerm;56821;52.486;4.680;2023-02-26T00:39:42;33.47;30.92;39.13;;
69615;Laerm;56821;52.486;4.680;2023-02-26T00:40:40;35.22;33.43;37.30;;
69615;Laerm;56821;52.486;4.680;2023-02-26T00:40:52;38.32;35.16;42.10;;
69615;Laerm;56821;52.486;4.680;2023-02-26T00:41:03;35.47;33.05;43.59;;
69615;Laerm;56821;52.486;4.680;2023-02-26T00:41:14;35.22;33.40;37.57;;
69615;Laerm;56821;52.486;4.680;2023-02-26T00:41:24;34.63;32.39;39.71;;
69615;Laerm;56821;52.486;4.680;2023-02-26T00:41:35;33.91;31.49;36.54;;
69615;Laerm;56821;52.486;4.680;2023-02-26T00:41:45;33.94;31.35;37.20;;
69615;Laerm;56821;52.486;4.680;2023-02-26T00:41:55;36.52;33.88;38.67;;
69615;Laerm;56821;52.486;4.680;2023-02-26T00:42:06;36.14;32.80;38.86;;
69615;Laerm;56821;52.486;4.680;2023-02-26T00:42:16;33.40;32.05;34.96;;
69615;Laerm;56821;52.486;4.680;2023-02-26T00:42:26;37.02;33.96;40.68;;
69615;Laerm;56821;52.486;4.680;2023-02-26T00:42:37;36.23;31.88;39.13;;
69615;Laerm;56821;52.486;4.680;2023-02-26T00:42:47;32.77;30.31;35.52;;
69615;Laerm;56821;52.486;4.680;2023-02-26T00:42:58;31.57;29.65;33.57;;
69615;Laerm;56821;52.486;4.680;2023-02-26T00:43:11;32.52;30.64;34.19;;
69615;Laerm;56821;52.486;4.680;2023-02-26T00:43:23;32.06;30.19;34.05;;
69615;Laerm;56821;52.486;4.680;2023-02-26T00:43:34;31.62;30.05;33.40;;
69615;Laerm;56821;52.486;4.680;2023-02-26T00:43:44;31.38;29.35;34.50;;
69615;Laerm;56821;52.486;4.680;2023-02-26T00:43:55;31.90;30.33;34.94;;
69615;Laerm;56821;52.486;4.680;2023-02-26T00:44:05;31.52;30.20;33.14;;
69615;Laerm;56821;52.486;4.680;2023-02-26T00:44:16;33.05;30.48;35.13;;
69615;Laerm;56821;52.486;4.680;2023-02-26T00:44:26;33.82;31.82;35.82;;
69615;Laerm;56821;52.486;4.680;2023-02-26T00:44:36;34.57;32.31;36.52;;
69615;Laerm;56821;52.486;4.680;2023-02-26T00:44:47;34.79;32.84;37.07;;
69615;Laerm;56821;52.486;4.680;2023-02-26T00:44:57;36.85;34.36;38.99;;
69615;Laerm;56821;52.486;4.680;2023-02-26T00:45:08;36.28;33.24;38.42;;
69615;Laerm;56821;52.486;4.680;2023-02-26T00:45:18;36.24;33.68;38.32;;
69615;Laerm;56821;52.486;4.680;2023-02-26T00:45:29;36.92;35.29;38.94;;
69615;Laerm;56821;52.486;4.680;2023-02-26T00:45:46;35.61;32.03;38.15;;
69615;Laerm;56821;52.486;4.680;2023-02-26T00:46:43;32.87;30.62;41.61;;
69615;Laerm;56821;52.486;4.680;2023-02-26T00:46:57;35.32;31.78;39.49;;
69615;Laerm;56821;52.486;4.680;2023-02-26T00:47:27;34.46;32.38;37.91;;
69615;Laerm;56821;52.486;4.680;2023-02-26T00:48:15;35.93;32.71;39.01;;
69615;Laerm;56821;52.486;4.680;2023-02-26T00:49:41;32.77;30.04;35.82;;
69615;Laerm;56821;52.486;4.680;2023-02-26T00:50:20;33.02;31.47;35.43;;
69615;Laerm;56821;52.486;4.680;2023-02-26T00:50:31;33.21;31.48;35.27;;
69615;Laerm;56821;52.486;4.680;2023-02-26T00:50:43;33.27;30.87;37.37;;
69615;Laerm;56821;52.486;4.680;2023-02-26T00:51:07;32.14;30.19;34.31;;
69615;Laerm;56821;52.486;4.680;2023-02-26T00:51:34;32.68;30.15;36.78;;
69615;Laerm;56821;52.486;4.680;2023-02-26T00:52:00;36.15;31.59;42.02;;
69615;Laerm;56821;52.486;4.680;2023-02-26T00:52:13;36.70;31.78;42.34;;
69615;Laerm;56821;52.486;4.680;2023-02-26T00:53:03;35.27;33.20;37.57;;
69615;Laerm;56821;52.486;4.680;2023-02-26T00:53:19;36.91;34.42;39.09;;
69615;Laerm;56821;52.486;4.680;2023-02-26T00:53:33;34.52;32.81;36.70;;
69615;Laerm;56821;52.486;4.680;2023-02-26T00:54:28;35.14;32.29;37.97;;
69615;Laerm;56821;52.486;4.680;2023-02-26T00:54:38;34.73;32.08;38.99;;
69615;Laerm;56821;52.486;4.680;2023-02-26T00:54:49;36.82;34.13;38.76;;
69615;Laerm;56821;52.486;4.680;2023-02-26T00:54:59;36.36;33.14;38.81;;
69615;Laerm;56821;52.486;4.680;2023-02-26T00:55:09;32.78;31.09;34.91;;
69615;Laerm;56821;52.486;4.680;2023-02-26T00:55:20;33.27;31.49;35.83;;
69615;Laerm;56821;52.486;4.680;2023-02-26T00:55:30;32.63;30.88;34.60;;
69615;Laerm;56821;52.486;4.680;2023-02-26T00:55:40;32.69;30.86;34.50;;
69615;Laerm;56821;52.486;4.680;2023-02-26T00:55:51;32.44;31.08;34.13;;
69615;Laerm;56821;52.486;4.680;2023-02-26T00:56:01;33.15;30.79;35.48;;
69615;Laerm;56821;52.486;4.680;2023-02-26T00:56:12;35.18;32.50;42.43;;
69615;Laerm;56821;52.486;4.680;2023-02-26T00:56:22;32.56;30.31;39.79;;
69615;Laerm;56821;52.486;4.680;2023-02-26T00:56:32;33.07;31.40;35.16;;
69615;Laerm;56821;52.486;4.680;2023-02-26T00:56:42;33.84;31.64;37.03;;
69615;Laerm;56821;52.486;4.680;2023-02-26T00:56:53;33.41;31.75;37.31;;
69615;Laerm;56821;52.486;4.680;2023-02-26T00:57:04;35.84;32.56;39.45;;
69615;Laerm;56821;52.486;4.680;2023-02-26T00:57:15;35.05;32.61;38.07;;
69615;Laerm;56821;52.486;4.680;2023-02-26T00:57:26;34.23;32.07;37.48;;
69615;Laerm;56821;52.486;4.680;2023-02-26T00:57:36;34.95;32.58;37.07;;
69615;Laerm;56821;52.486;4.680;2023-02-26T00:57:46;35.89;33.46;41.93;;
69615;Laerm;56821;52.486;4.680;2023-02-26T00:57:56;36.16;33.08;39.56;;
69615;Laerm;56821;52.486;4.680;2023-02-26T00:58:06;35.58;31.61;38.83;;
69615;Laerm;56821;52.486;4.680;2023-02-26T00:58:17;32.89;31.47;34.98;;
69615;Laerm;56821;52.486;4.680;2023-02-26T00:58:27;32.44;30.86;34.27;;
69615;Laerm;56821;52.486;4.680;2023-02-26T00:58:37;33.46;31.08;36.88;;
69615;Laerm;56821;52.486;4.680;2023-02-26T00:58:47;33.04;30.95;34.85;;
69615;Laerm;56821;52.486;4.680;2023-02-26T00:58:58;32.10;29.98;34.32;;
69615;Laerm;56821;52.486;4.680;2023-02-26T00:59:08;32.62;30.43;34.84;;
69615;Laerm;56821;52.486;4.680;2023-02-26T00:59:18;32.72;30.72;34.40;;
69615;Laerm;56821;52.486;4.680;2023-02-26T00:59:29;33.46;31.53;35.70;;
69615;Laerm;56821;52.486;4.680;2023-02-26T00:59:39;32.91;31.36;34.31;;
69615;Laerm;56821;52.486;4.680;2023-02-26T00:59:49;32.91;31.24;36.18;;
69615;Laerm;56821;52.486;4.680;2023-02-26T00:59:59;33.24;31.72;34.47;;
69615;Laerm;56821;52.486;4.680;2023-02-26T01:00:10;33.81;31.93;35.52;;
69615;Laerm;56821;52.486;4.680;2023-02-26T01:00:21;32.56;30.50;35.88;;
69615;Laerm;56821;52.486;4.680;2023-02-26T01:00:31;32.77;31.12;35.17;;
69615;Laerm;56821;52.486;4.680;2023-02-26T01:00:41;33.11;31.21;35.39;;
69615;Laerm;56821;52.486;4.680;2023-02-26T01:00:52;33.68;31.76;35.50;;
69615;Laerm;56821;52.486;4.680;2023-02-26T01:01:02;33.52;31.57;36.25;;
69615;Laerm;56821;52.486;4.680;2023-02-26T01:01:12;33.18;31.45;35.05;;
69615;Laerm;56821;52.486;4.680;2023-02-26T01:01:22;34.97;32.58;37.11;;
69615;Laerm;56821;52.486;4.680;2023-02-26T01:01:32;34.67;32.99;37.96;;
69615;Laerm;56821;52.486;4.680;2023-02-26T01:01:43;37.63;34.97;40.44;;
69615;Laerm;56821;52.486;4.680;2023-02-26T01:01:53;37.01;32.79;39.85;;
69615;Laerm;56821;52.486;4.680;2023-02-26T01:02:03;33.92;31.68;35.95;;
69615;Laerm;56821;52.486;4.680;2023-02-26T01:02:13;36.21;32.55;38.83;;
69615;Laerm;56821;52.486;4.680;2023-02-26T01:02:24;38.14;35.65;40.44;;
69615;Laerm;56821;52.486;4.680;2023-02-26T01:02:34;34.18;31.35;38.02;;
69615;Laerm;56821;52.486;4.680;2023-02-26T01:02:45;32.21;30.33;37.49;;
69615;Laerm;56821;52.486;4.680;2023-02-26T01:02:55;35.05;31.05;42.50;;
69615;Laerm;56821;52.486;4.680;2023-02-26T01:03:06;36.68;33.41;38.94;;
69615;Laerm;56821;52.486;4.680;2023-02-26T01:03:16;34.12;30.32;37.53;;
69615;Laerm;56821;52.486;4.680;2023-02-26T01:03:27;31.37;29.95;32.81;;
69615;Laerm;56821;52.486;4.680;2023-02-26T01:03:37;32.43;30.51;35.11;;
69615;Laerm;56821;52.486;4.680;2023-02-26T01:03:48;32.29;30.24;34.93;;
69615;Laerm;56821;52.486;4.680;2023-02-26T01:03:58;31.59;29.56;33.32;;
69615;Laerm;56821;52.486;4.680;2023-02-26T01:04:09;31.18;29.30;34.39;;
69615;Laerm;56821;52.486;4.680;2023-02-26T01:04:20;31.16;29.49;33.22;;
69615;Laerm;56821;52.486;4.680;2023-02-26T01:04:31;31.44;29.79;34.73;;
69615;Laerm;56821;52.486;4.680;2023-02-26T01:04:42;31.16;29.13;33.41;;
69615;Laerm;56821;52.486;4.680;2023-02-26T01:04:52;30.45;28.90;31.98;;
69615;Laerm;56821;52.486;4.680;2023-02-26T01:05:03;30.70;29.49;32.18;;
69615;Laerm;56821;52.486;4.680;2023-02-26T01:05:13;31.00;29.67;32.97;;
69615;Laerm;56821;52.486;4.680;2023-02-26T01:05:24;31.44;30.17;33.00;;
69615;Laerm;56821;52.486;4.680;2023-02-26T01:05:34;32.11;30.02;34.43;;
69615;Laerm;56821;52.486;4.680;2023-02-26T01:05:45;33.35;31.28;35.06;;
69615;Laerm;56821;52.486;4.680;2023-02-26T01:05:55;34.36;32.60;36.28;;
69615;Laerm;56821;52.486;4.680;2023-02-26T01:06:09;33.39;31.14;35.51;;
69615;Laerm;56821;52.486;4.680;2023-02-26T01:06:20;32.39;30.84;35.88;;
69615;Laerm;56821;52.486;4.680;2023-02-26T01:06:31;32.76;30.98;40.84;;
69615;Laerm;56821;52.486;4.680;2023-02-26T01:06:51;31.86;30.21;33.24;;
69615;Laerm;56821;52.486;4.680;2023-02-26T01:07:01;30.61;28.77;32.39;;
69615;Laerm;56821;52.486;4.680;2023-02-26T01:07:12;29.68;28.45;30.82;;
69615;Laerm;56821;52.486;4.680;2023-02-26T01:07:23;31.32;28.84;35.50;;
69615;Laerm;56821;52.486;4.680;2023-02-26T01:07:37;30.93;29.62;33.93;;
69615;Laerm;56821;52.486;4.680;2023-02-26T01:08:07;30.86;28.93;33.15;;
69615;Laerm;56821;52.486;4.680;2023-02-26T01:08:23;31.57;29.58;34.33;;
69615;Laerm;56821;52.486;4.680;2023-02-26T01:08:58;32.14;29.95;34.80;;
69615;Laerm;56821;52.486;4.680;2023-02-26T01:09:27;33.22;31.62;36.34;;
69615;Laerm;56821;52.486;4.680;2023-02-26T01:09:38;33.46;30.65;38.06;;
69615;Laerm;56821;52.486;4.680;2023-02-26T01:09:49;32.76;31.34;34.58;;
69615;Laerm;56821;52.486;4.680;2023-02-26T01:09:59;33.94;31.69;36.39;;
69615;Laerm;56821;52.486;4.680;2023-02-26T01:10:10;32.92;30.52;35.18;;
69615;Laerm;56821;52.486;4.680;2023-02-26T01:10:20;32.27;30.38;33.90;;
69615;Laerm;56821;52.486;4.680;2023-02-26T01:10:31;33.83;31.15;37.63;;
69615;Laerm;56821;52.486;4.680;2023-02-26T01:10:41;33.64;31.18;36.50;;
69615;Laerm;56821;52.486;4.680;2023-02-26T01:10:52;32.60;30.92;34.57;;
69615;Laerm;56821;52.486;4.680;2023-02-26T01:11:02;32.97;30.84;35.56;;
69615;Laerm;56821;52.486;4.680;2023-02-26T01:11:13;33.06;30.95;36.90;;
69615;Laerm;56821;52.486;4.680;2023-02-26T01:11:23;34.63;31.30;42.18;;
69615;Laerm;56821;52.486;4.680;2023-02-26T01:11:33;33.98;31.63;38.78;;
69615;Laerm;56821;52.486;4.680;2023-02-26T01:11:44;34.17;32.29;36.35;;
69615;Laerm;56821;52.486;4.680;2023-02-26T01:11:56;37.01;33.55;39.14;;